Time;durP1;ratioP1;P1;durP2;ratioP2;P2;SDS_P1;SDS_P2;PMS_P1;PMS_P2;Temp;Humidity;BMP_temperature;BMP_pressure;BME280_temperature;BME280_humidity;BME280_pressure;Samples;Min_cycle;Max_cycle;Signal;HPM_P1;HPM_P2
2023/06/30 00:00:55;;;;;;;20.05;5.93;;;14.00;99.90;;;;;;4929924;28;217353;-69
2023/06/30 00:03:24;;;;;;;16.98;6.10;;;14.00;99.90;;;;;;4985663;28;20067;-69
2023/06/30 00:05:50;;;;;;;18.63;5.95;;;13.90;99.90;;;;;;4932864;28;210229;-69
2023/06/30 00:08:16;;;;;;;17.00;5.85;;;13.90;99.90;;;;;;4985290;28;20046;-68
2023/06/30 00:10:42;;;;;;;18.67;5.70;;;13.80;99.90;;;;;;4946135;28;207725;-69
2023/06/30 00:13:08;;;;;;;23.70;5.63;;;13.80;99.90;;;;;;4970177;28;20058;-69
2023/06/30 00:15:34;;;;;;;19.17;6.22;;;13.80;99.90;;;;;;4955029;28;207420;-68
2023/06/30 00:18:00;;;;;;;21.48;5.63;;;13.70;99.90;;;;;;4991585;28;20054;-68
2023/06/30 00:20:27;;;;;;;18.63;6.05;;;13.70;99.90;;;;;;4961772;28;204329;-68
2023/06/30 00:22:53;;;;;;;18.08;5.25;;;13.60;99.90;;;;;;5004412;28;20050;-69
2023/06/30 00:25:19;;;;;;;14.20;5.32;;;13.60;99.90;;;;;;4945293;28;212630;-68
2023/06/30 00:27:45;;;;;;;22.08;6.22;;;13.60;99.90;;;;;;4997740;28;20507;-68
2023/06/30 00:30:11;;;;;;;19.38;5.88;;;13.60;99.90;;;;;;4941090;28;212308;-67
2023/06/30 00:32:37;;;;;;;18.65;5.90;;;13.50;99.90;;;;;;4996365;28;20043;-69
2023/06/30 00:35:04;;;;;;;19.40;6.10;;;13.50;99.90;;;;;;4948699;28;207466;-69
2023/06/30 00:37:31;;;;;;;21.95;6.10;;;13.40;99.90;;;;;;4996536;28;20057;-69
2023/06/30 00:39:57;;;;;;;15.60;5.40;;;13.40;99.90;;;;;;4944731;28;208460;-69
2023/06/30 00:42:23;;;;;;;19.10;5.40;;;13.30;99.90;;;;;;5001845;28;20459;-69
2023/06/30 00:44:49;;;;;;;18.27;5.55;;;13.20;99.90;;;;;;4934056;28;208400;-68
2023/06/30 00:47:16;;;;;;;21.25;5.35;;;13.20;99.90;;;;;;5009476;28;20053;-69
2023/06/30 00:49:42;;;;;;;20.60;5.75;;;13.20;99.90;;;;;;4947463;28;209507;-69
2023/06/30 00:52:08;;;;;;;18.83;5.60;;;13.10;99.90;;;;;;5009138;28;20046;-69
2023/06/30 00:54:35;;;;;;;15.27;4.57;;;13.20;99.90;;;;;;4929325;28;253150;-69
2023/06/30 00:57:05;;;;;;;18.52;5.38;;;13.10;99.90;;;;;;5028877;28;20547;-68
2023/06/30 00:59:31;;;;;;;16.97;5.20;;;13.10;99.90;;;;;;4956871;28;254098;-68
2023/06/30 01:02:02;;;;;;;17.50;5.03;;;13.10;99.90;;;;;;5016964;28;20079;-68
2023/06/30 01:05:15;;;;;;;21.90;4.93;;;13.00;99.90;;;;;;4954113;28;207063;-69
2023/06/30 01:08:07;;;;;;;17.17;5.20;;;13.00;99.90;;;;;;5009666;28;20049;-69
2023/06/30 01:10:34;;;;;;;18.02;4.68;;;13.00;99.90;;;;;;4921710;28;207172;-69
2023/06/30 01:13:02;;;;;;;17.48;5.70;;;13.00;99.90;;;;;;5004107;28;20056;-69
2023/06/30 01:15:29;;;;;;;19.30;4.97;;;13.00;99.90;;;;;;4957660;28;213620;-69
2023/06/30 01:17:59;;;;;;;17.98;5.07;;;12.90;99.90;;;;;;5011465;28;20054;-69
2023/06/30 01:20:30;;;;;;;17.45;4.97;;;12.90;99.90;;;;;;4956207;28;210694;-69
2023/06/30 01:23:17;;;;;;;20.98;5.10;;;12.90;99.90;;;;;;5011130;28;20503;-68
2023/06/30 01:25:45;;;;;;;13.77;4.53;;;12.90;99.90;;;;;;4967154;28;224549;-69
2023/06/30 01:28:12;;;;;;;18.23;5.18;;;12.80;99.90;;;;;;4982134;28;20050;-69
2023/06/30 01:30:39;;;;;;;18.27;4.70;;;12.80;99.90;;;;;;4938173;28;209730;-69
2023/06/30 01:33:05;;;;;;;23.52;5.22;;;12.80;99.90;;;;;;4995454;28;20054;-69
2023/06/30 01:35:32;;;;;;;16.20;5.15;;;12.80;99.90;;;;;;4960342;28;207338;-70
2023/06/30 01:37:59;;;;;;;16.70;5.03;;;12.70;99.90;;;;;;5012648;28;20041;-68
2023/06/30 01:40:25;;;;;;;17.85;4.60;;;12.70;99.90;;;;;;4955844;28;207386;-69
2023/06/30 01:42:54;;;;;;;18.17;4.85;;;12.70;99.90;;;;;;5007097;28;20068;-69
2023/06/30 01:45:20;;;;;;;18.08;4.25;;;12.60;99.90;;;;;;4953345;28;207398;-68
2023/06/30 01:47:47;;;;;;;16.80;4.35;;;12.60;99.90;;;;;;4994061;28;20057;-68
2023/06/30 01:50:14;;;;;;;16.83;4.40;;;12.60;99.90;;;;;;4953082;28;206815;-69
2023/06/30 01:52:40;;;;;;;15.30;4.75;;;12.60;99.90;;;;;;5006081;28;20058;-69
2023/06/30 01:55:07;;;;;;;14.57;4.00;;;12.60;99.90;;;;;;4925087;28;212916;-69
2023/06/30 01:57:33;;;;;;;16.13;4.32;;;12.60;99.90;;;;;;5003264;28;20057;-68
2023/06/30 01:59:59;;;;;;;18.08;4.68;;;12.60;99.90;;;;;;4938372;28;207792;-69
2023/06/30 02:02:25;;;;;;;17.40;4.38;;;12.50;99.90;;;;;;4986641;28;20054;-68
2023/06/30 02:04:51;;;;;;;17.77;4.53;;;12.50;99.90;;;;;;4941760;28;225722;-69
2023/06/30 02:07:17;;;;;;;16.45;4.45;;;12.50;99.90;;;;;;5024532;28;20061;-69
2023/06/30 02:09:43;;;;;;;14.63;4.93;;;12.40;99.90;;;;;;4950327;28;236905;-70
2023/06/30 02:12:09;;;;;;;15.15;4.47;;;12.40;99.90;;;;;;4996988;28;20065;-70
2023/06/30 02:14:36;;;;;;;13.57;4.30;;;12.40;99.90;;;;;;4940617;28;206879;-69
2023/06/30 02:17:02;;;;;;;15.85;5.07;;;12.30;99.90;;;;;;4991811;28;20066;-69
2023/06/30 02:19:29;;;;;;;15.63;4.63;;;12.40;99.90;;;;;;4939824;28;216493;-69
2023/06/30 02:21:55;;;;;;;17.92;4.45;;;12.30;99.90;;;;;;4994030;28;20062;-69
2023/06/30 02:24:21;;;;;;;12.65;4.72;;;12.30;99.90;;;;;;4936314;28;232356;-70
2023/06/30 02:26:47;;;;;;;13.85;4.90;;;12.30;99.90;;;;;;4999556;28;20054;-70
2023/06/30 02:29:13;;;;;;;14.45;4.82;;;12.30;99.90;;;;;;4972594;28;219760;-69
2023/06/30 02:31:39;;;;;;;14.65;5.03;;;12.20;99.90;;;;;;4952073;28;161934;-70
2023/06/30 02:34:06;;;;;;;16.38;5.03;;;12.20;99.90;;;;;;4993544;28;20088;-68
2023/06/30 02:36:32;;;;;;;15.50;4.80;;;12.20;99.90;;;;;;4953593;28;207422;-69
2023/06/30 02:38:58;;;;;;;15.23;5.30;;;12.20;99.90;;;;;;4989568;28;20057;-69
2023/06/30 02:41:24;;;;;;;16.70;4.82;;;12.10;99.90;;;;;;4969809;28;207791;-69
2023/06/30 02:43:50;;;;;;;17.70;5.18;;;12.10;99.90;;;;;;4986061;28;20593;-69
2023/06/30 02:46:16;;;;;;;15.52;4.90;;;12.00;99.90;;;;;;4980799;28;211329;-69
2023/06/30 02:48:42;;;;;;;12.35;5.00;;;12.00;99.90;;;;;;4987962;28;20061;-69
2023/06/30 02:51:08;;;;;;;15.73;4.75;;;12.00;99.90;;;;;;4959812;28;207636;-69
2023/06/30 02:53:34;;;;;;;18.65;5.38;;;12.00;99.90;;;;;;4986139;28;20058;-69
2023/06/30 02:56:01;;;;;;;15.02;4.90;;;11.90;99.90;;;;;;4941919;28;210857;-70
2023/06/30 02:58:27;;;;;;;16.25;5.03;;;11.90;99.90;;;;;;4989018;28;20058;-69
2023/06/30 03:00:55;;;;;;;17.45;4.90;;;11.90;99.90;;;;;;4950859;28;211155;-70
2023/06/30 03:03:21;;;;;;;16.92;5.03;;;11.90;99.90;;;;;;5009318;28;20072;-69
2023/06/30 03:05:47;;;;;;;18.63;5.22;;;11.90;99.90;;;;;;4950461;28;208174;-70
2023/06/30 03:08:13;;;;;;;18.65;5.70;;;11.90;99.90;;;;;;4987623;28;20057;-69
2023/06/30 03:10:40;;;;;;;17.02;5.50;;;11.90;99.90;;;;;;4935268;28;206388;-70
2023/06/30 03:13:06;;;;;;;19.77;5.50;;;11.90;99.90;;;;;;4990155;28;20054;-69
2023/06/30 03:15:32;;;;;;;17.25;5.47;;;11.80;99.90;;;;;;4945621;28;209231;-69
2023/06/30 03:17:58;;;;;;;15.95;5.35;;;11.80;99.90;;;;;;4993934;28;20046;-69
2023/06/30 03:20:24;;;;;;;19.10;5.85;;;11.80;99.90;;;;;;4943448;28;208926;-69
2023/06/30 03:22:53;;;;;;;15.18;5.22;;;11.70;99.90;;;;;;4990421;28;20057;-69
2023/06/30 03:25:19;;;;;;;15.82;5.15;;;11.70;99.90;;;;;;4933820;28;212681;-69
2023/06/30 03:27:45;;;;;;;15.60;4.93;;;11.70;99.90;;;;;;4994112;28;20440;-69
2023/06/30 03:30:11;;;;;;;17.05;5.28;;;11.70;99.90;;;;;;4946134;28;204731;-69
2023/06/30 03:32:37;;;;;;;17.90;5.45;;;11.70;99.90;;;;;;4990596;28;20054;-70
2023/06/30 03:35:04;;;;;;;19.30;6.10;;;11.70;99.90;;;;;;4944397;28;209420;-69
2023/06/30 03:37:31;;;;;;;18.02;5.40;;;11.70;99.90;;;;;;4995073;28;20512;-69
2023/06/30 03:39:57;;;;;;;17.70;5.97;;;11.70;99.90;;;;;;4933596;28;213325;-69
2023/06/30 03:42:23;;;;;;;15.52;5.05;;;11.70;99.90;;;;;;4994807;28;20065;-69
2023/06/30 03:44:49;;;;;;;15.55;5.45;;;11.60;99.90;;;;;;4939807;28;207707;-69
2023/06/30 03:47:15;;;;;;;15.25;5.22;;;11.60;99.90;;;;;;5007962;28;20050;-70
2023/06/30 03:49:41;;;;;;;16.55;4.82;;;11.60;99.90;;;;;;4933687;28;218237;-68
2023/06/30 03:52:07;;;;;;;12.73;5.00;;;11.60;99.90;;;;;;4995014;28;20065;-68
2023/06/30 03:54:33;;;;;;;14.47;5.27;;;11.60;99.90;;;;;;4911885;28;213325;-70
2023/06/30 03:57:00;;;;;;;16.30;5.70;;;11.60;99.90;;;;;;4981971;28;20058;-70
2023/06/30 03:59:26;;;;;;;17.37;5.23;;;11.60;99.90;;;;;;4941535;28;207297;-69
2023/06/30 04:01:53;;;;;;;16.98;5.35;;;11.60;99.90;;;;;;5001551;28;20500;-69
2023/06/30 04:04:19;;;;;;;16.80;5.03;;;11.60;99.90;;;;;;4944099;28;207866;-69
2023/06/30 04:06:46;;;;;;;16.98;5.07;;;11.70;99.90;;;;;;5006296;28;20050;-68
2023/06/30 04:09:12;;;;;;;15.75;5.45;;;11.70;99.90;;;;;;4978321;28;208929;-69
2023/06/30 04:11:38;;;;;;;16.13;5.55;;;11.70;99.90;;;;;;4973056;28;206146;-69
2023/06/30 04:14:05;;;;;;;16.05;5.07;;;11.70;99.90;;;;;;4986817;28;20057;-69
2023/06/30 04:16:31;;;;;;;12.65;4.82;;;11.70;99.90;;;;;;4962297;28;214430;-70
2023/06/30 04:18:57;;;;;;;16.17;5.43;;;11.80;99.90;;;;;;4988869;28;20056;-70
2023/06/30 04:21:23;;;;;;;13.93;5.43;;;11.80;99.90;;;;;;4945799;28;209978;-70
2023/06/30 04:23:49;;;;;;;16.13;4.80;;;11.90;99.90;;;;;;4987052;28;20424;-70
2023/06/30 04:26:18;;;;;;;18.73;5.45;;;12.00;99.90;;;;;;4957976;28;220959;-70
2023/06/30 04:28:47;;;;;;;13.55;5.13;;;12.00;99.90;;;;;;4989797;28;20061;-69
2023/06/30 04:31:13;;;;;;;18.33;5.22;;;12.10;99.90;;;;;;4953677;28;185690;-69
2023/06/30 04:33:39;;;;;;;14.93;4.90;;;12.20;99.90;;;;;;4995007;28;20045;-70
2023/06/30 04:36:06;;;;;;;14.60;4.72;;;12.30;99.90;;;;;;4944705;28;210843;-70
2023/06/30 04:38:36;;;;;;;17.40;4.75;;;12.30;99.90;;;;;;4992362;28;20490;-70
2023/06/30 04:41:02;;;;;;;15.65;4.90;;;12.30;99.90;;;;;;4968262;28;208474;-69
2023/06/30 04:43:28;;;;;;;15.60;4.80;;;12.40;99.90;;;;;;4993095;28;20061;-68
2023/06/30 04:45:54;;;;;;;13.77;4.53;;;12.50;99.90;;;;;;4978957;28;210177;-69
2023/06/30 04:48:20;;;;;;;16.83;4.70;;;12.50;99.90;;;;;;4992616;28;20511;-70
2023/06/30 04:50:46;;;;;;;18.05;5.15;;;12.60;99.90;;;;;;4950181;28;207623;-69
2023/06/30 04:53:12;;;;;;;15.23;5.00;;;12.70;99.90;;;;;;4991335;28;20065;-69
2023/06/30 04:55:38;;;;;;;13.40;4.60;;;12.70;99.90;;;;;;4920089;28;211202;-69
2023/06/30 04:58:05;;;;;;;19.05;4.72;;;12.80;99.90;;;;;;4995153;28;20512;-69
2023/06/30 05:00:31;;;;;;;16.67;4.97;;;12.90;99.90;;;;;;4951573;28;213166;-71
2023/06/30 05:02:57;;;;;;;14.10;4.60;;;12.90;99.90;;;;;;5008040;28;20053;-70
2023/06/30 05:05:23;;;;;;;14.57;4.35;;;12.90;99.90;;;;;;4957704;28;165783;-70
2023/06/30 05:07:49;;;;;;;14.43;4.60;;;13.00;99.90;;;;;;5000291;28;20061;-70
2023/06/30 05:10:15;;;;;;;11.98;4.40;;;13.10;99.90;;;;;;4958563;28;206914;-71
2023/06/30 05:12:42;;;;;;;19.73;4.30;;;13.10;99.90;;;;;;5017303;28;20059;-69
2023/06/30 05:15:08;;;;;;;16.05;4.75;;;13.20;99.90;;;;;;4959860;28;216231;-70
2023/06/30 05:17:35;;;;;;;15.05;4.70;;;13.30;99.90;;;;;;5003204;28;20507;-69
2023/06/30 05:20:05;;;;;;;13.40;4.03;;;13.40;99.90;;;;;;4936662;28;207196;-70
2023/06/30 05:22:31;;;;;;;15.30;4.85;;;13.50;99.90;;;;;;4976260;28;20663;-70
2023/06/30 05:24:57;;;;;;;12.13;4.10;;;13.70;99.90;;;;;;4931641;28;225667;-70
2023/06/30 05:27:24;;;;;;;15.40;4.40;;;13.90;99.90;;;;;;4999699;28;20061;-69
2023/06/30 05:29:50;;;;;;;16.52;4.20;;;14.00;99.90;;;;;;4954217;28;209994;-69
2023/06/30 05:32:16;;;;;;;12.93;3.50;;;14.20;99.90;;;;;;5016237;28;20419;-69
2023/06/30 05:34:42;;;;;;;15.02;3.90;;;14.30;99.90;;;;;;4942858;28;133513;-70
2023/06/30 05:37:09;;;;;;;15.05;3.95;;;14.40;99.90;;;;;;4991261;28;20073;-70
2023/06/30 05:39:36;;;;;;;15.77;3.80;;;14.60;99.90;;;;;;4943546;28;207363;-69
2023/06/30 05:42:02;;;;;;;13.48;3.70;;;14.80;99.90;;;;;;4997758;28;20526;-69
2023/06/30 05:44:28;;;;;;;13.93;3.50;;;15.00;99.90;;;;;;4929443;28;211900;-69
2023/06/30 05:46:54;;;;;;;12.57;3.58;;;15.10;99.90;;;;;;5001126;28;20042;-69
2023/06/30 05:49:20;;;;;;;12.43;2.60;;;15.30;99.90;;;;;;4938841;28;209245;-69
2023/06/30 05:51:46;;;;;;;11.63;3.00;;;15.40;99.90;;;;;;5012626;28;20069;-68
2023/06/30 05:54:13;;;;;;;13.70;3.42;;;15.50;99.90;;;;;;4973820;28;207064;-69
2023/06/30 05:56:39;;;;;;;11.07;2.90;;;15.60;99.90;;;;;;4964245;28;130707;-69
2023/06/30 05:59:09;;;;;;;12.85;3.35;;;15.70;99.90;;;;;;4985692;28;20054;-68
2023/06/30 06:01:38;;;;;;;10.55;2.72;;;16.00;99.90;;;;;;4951742;28;204095;-68
2023/06/30 06:04:11;;;;;;;10.82;2.58;;;16.20;99.90;;;;;;5020497;28;20057;-68
2023/06/30 06:06:38;;;;;;;13.75;2.58;;;16.50;99.90;;;;;;4954566;28;209315;-69
2023/06/30 06:09:04;;;;;;;10.52;2.42;;;16.60;99.90;;;;;;4988087;28;20050;-69
2023/06/30 06:11:30;;;;;;;9.05;2.30;;;16.60;99.90;;;;;;4956495;28;188362;-69
2023/06/30 06:13:56;;;;;;;11.63;2.67;;;16.70;99.90;;;;;;4992500;28;20427;-70
2023/06/30 06:16:22;;;;;;;11.43;2.60;;;16.60;99.90;;;;;;4970727;28;210544;-70
2023/06/30 06:18:49;;;;;;;12.75;2.83;;;16.40;99.90;;;;;;4991583;28;20046;-71
2023/06/30 06:21:16;;;;;;;13.15;3.28;;;16.30;99.90;;;;;;4971554;28;209824;-68
2023/06/30 06:23:43;;;;;;;11.40;2.50;;;16.60;99.90;;;;;;5011437;28;20474;-68
2023/06/30 06:26:09;;;;;;;11.20;2.60;;;16.80;99.90;;;;;;4959540;28;232247;-68
2023/06/30 06:28:35;;;;;;;11.73;2.40;;;17.00;99.90;;;;;;4991448;28;20062;-70
2023/06/30 06:31:01;;;;;;;9.80;2.28;;;17.20;99.90;;;;;;4941197;28;209509;-71
2023/06/30 06:33:27;;;;;;;11.15;1.98;;;17.20;99.90;;;;;;4986827;28;20054;-70
2023/06/30 06:35:56;;;;;;;10.10;2.15;;;17.30;99.90;;;;;;4950483;28;213532;-70
2023/06/30 06:38:23;;;;;;;10.07;2.22;;;17.50;99.90;;;;;;4989377;28;20061;-71
2023/06/30 06:40:49;;;;;;;11.85;1.98;;;17.70;99.90;;;;;;4951922;28;206797;-68
2023/06/30 06:43:15;;;;;;;7.57;1.70;;;17.90;99.90;;;;;;4987750;28;20077;-69
2023/06/30 06:45:44;;;;;;;9.60;2.10;;;17.70;99.90;;;;;;4918228;28;199546;-69
2023/06/30 06:48:24;;;;;;;11.48;1.90;;;17.80;99.90;;;;;;4974735;28;20054;-70
2023/06/30 06:50:52;;;;;;;12.00;2.03;;;18.00;99.90;;;;;;4955114;28;208103;-70
2023/06/30 06:53:28;;;;;;;10.75;1.88;;;18.10;99.90;;;;;;4992312;28;20061;-71
2023/06/30 06:55:57;;;;;;;12.10;2.03;;;18.20;99.90;;;;;;4941226;28;207032;-70
2023/06/30 06:58:25;;;;;;;9.48;1.80;;;18.30;99.90;;;;;;4970968;28;20054;-68
2023/06/30 07:01:11;;;;;;;8.85;1.63;;;18.40;99.90;;;;;;4912947;28;172116;-69
2023/06/30 07:03:38;;;;;;;9.35;1.75;;;18.20;99.90;;;;;;4983427;28;20061;-70
2023/06/30 07:06:07;;;;;;;8.57;1.70;;;18.10;99.90;;;;;;4918713;28;200700;-70
2023/06/30 07:08:35;;;;;;;6.97;1.40;;;18.10;99.90;;;;;;4986940;28;20400;-70
2023/06/30 07:11:03;;;;;;;7.90;1.25;;;18.40;99.90;;;;;;4963883;28;211475;-70
2023/06/30 07:13:29;;;;;;;7.95;1.50;;;18.30;99.90;;;;;;4987395;28;20050;-70
2023/06/30 07:15:55;;;;;;;9.35;1.75;;;18.70;99.90;;;;;;4970068;28;100005;-69
2023/06/30 07:18:22;;;;;;;9.38;1.60;;;19.10;99.90;;;;;;5008732;28;20057;-70
2023/06/30 07:20:50;;;;;;;10.45;1.50;;;19.50;99.90;;;;;;4959875;28;220724;-71
2023/06/30 07:23:16;;;;;;;8.95;1.50;;;19.50;99.90;;;;;;4980452;28;20055;-71
2023/06/30 07:25:44;;;;;;;7.88;1.58;;;19.30;99.90;;;;;;4950837;28;211919;-70
2023/06/30 07:28:10;;;;;;;9.82;1.60;;;19.20;99.90;;;;;;4982816;28;20050;-70
2023/06/30 07:30:48;;;;;;;10.82;1.60;;;19.10;99.90;;;;;;4950293;28;216440;-69
2023/06/30 07:33:14;;;;;;;11.43;1.98;;;19.10;99.90;;;;;;4987049;28;20050;-68
2023/06/30 07:35:40;;;;;;;10.32;1.63;;;19.50;99.90;;;;;;4947863;28;207875;-69
2023/06/30 07:38:07;;;;;;;11.93;1.85;;;19.50;99.90;;;;;;4994881;28;20050;-71
2023/06/30 07:40:33;;;;;;;10.40;1.50;;;19.50;99.90;;;;;;4944970;28;207103;-71
2023/06/30 07:42:59;;;;;;;9.82;1.30;;;19.40;99.90;;;;;;4987129;28;20035;-70
2023/06/30 07:45:25;;;;;;;8.13;1.65;;;18.90;99.90;;;;;;4940179;28;208175;-70
2023/06/30 07:47:52;;;;;;;7.93;1.50;;;18.90;99.90;;;;;;4984907;28;20054;-71
2023/06/30 07:50:18;;;;;;;9.13;1.48;;;18.70;99.90;;;;;;4932122;28;209302;-71
2023/06/30 07:52:47;;;;;;;8.85;1.40;;;18.70;99.90;;;;;;4986810;28;20130;-71
2023/06/30 07:55:18;;;;;;;10.82;1.48;;;18.70;99.90;;;;;;4943623;28;133390;-71
2023/06/30 07:57:46;;;;;;;10.25;1.40;;;19.10;99.90;;;;;;4994537;28;20066;-72
2023/06/30 08:00:18;;;;;;;10.68;1.50;;;19.50;99.90;;;;;;4938565;28;209504;-72
2023/06/30 08:02:44;;;;;;;8.32;1.30;;;19.30;99.90;;;;;;4986506;28;20050;-72
2023/06/30 08:05:11;;;;;;;8.38;1.40;;;19.40;99.90;;;;;;4942802;28;105193;-71
2023/06/30 08:07:37;;;;;;;8.85;1.50;;;19.30;99.90;;;;;;4990814;28;20050;-70
2023/06/30 08:10:04;;;;;;;8.10;1.45;;;19.40;99.90;;;;;;4942579;28;196884;-71
2023/06/30 08:12:30;;;;;;;11.60;1.88;;;19.60;99.90;;;;;;4990696;28;20065;-71
2023/06/30 08:14:56;;;;;;;9.60;1.58;;;20.20;99.90;;;;;;4959566;28;207862;-71
2023/06/30 08:17:22;;;;;;;7.90;1.40;;;20.50;99.90;;;;;;5030502;28;20062;-71
2023/06/30 08:19:48;;;;;;;7.32;1.30;;;19.80;98.60;;;;;;4958408;28;206845;-73
2023/06/30 08:22:16;;;;;;;8.93;1.60;;;20.10;99.90;;;;;;5012316;28;20590;-71
2023/06/30 08:24:45;;;;;;;9.68;1.30;;;20.60;99.90;;;;;;4933431;28;504367;-71
2023/06/30 08:27:11;;;;;;;7.93;1.30;;;21.40;99.90;;;;;;5029940;28;20060;-72
2023/06/30 08:29:37;;;;;;;7.28;1.20;;;22.10;99.20;;;;;;4963989;28;208140;-71
2023/06/30 08:32:06;;;;;;;8.23;1.58;;;22.20;97.80;;;;;;5001660;28;20069;-71
2023/06/30 08:34:32;;;;;;;8.18;1.20;;;21.90;97.50;;;;;;4944261;28;207851;-71
2023/06/30 08:36:58;;;;;;;7.70;1.60;;;21.60;99.10;;;;;;5019907;28;20042;-71
2023/06/30 08:39:31;;;;;;;7.72;1.40;;;21.30;97.80;;;;;;4939692;28;217946;-71
2023/06/30 08:41:59;;;;;;;7.18;1.30;;;21.30;98.00;;;;;;5031648;28;20073;-71
2023/06/30 08:44:25;;;;;;;7.83;1.37;;;21.00;98.20;;;;;;4938139;28;207030;-71
2023/06/30 08:46:53;;;;;;;9.45;1.50;;;20.40;98.20;;;;;;5007585;28;20073;-72
2023/06/30 08:49:23;;;;;;;6.80;1.10;;;20.20;99.00;;;;;;4949402;28;210941;-69
2023/06/30 08:51:57;;;;;;;6.55;1.20;;;19.80;98.10;;;;;;5021196;28;20177;-74
2023/06/30 08:54:32;;;;;;;9.15;1.65;;;19.70;99.40;;;;;;4934580;28;213225;-70
2023/06/30 08:57:01;;;;;;;9.25;1.40;;;19.70;98.80;;;;;;5008522;28;20069;-71
2023/06/30 08:59:27;;;;;;;7.78;1.25;;;20.30;98.60;;;;;;4960180;28;206365;-72
2023/06/30 09:01:56;;;;;;;5.20;1.00;;;21.00;98.90;;;;;;5004496;28;20058;-72
2023/06/30 09:04:23;;;;;;;7.90;1.27;;;21.30;96.50;;;;;;4936478;28;212712;-71
2023/06/30 09:06:51;;;;;;;6.95;1.30;;;22.00;97.70;;;;;;5007601;28;20050;-72
2023/06/30 09:09:31;;;;;;;8.95;1.58;;;22.80;96.20;;;;;;4956501;28;238045;-71
2023/06/30 09:11:57;;;;;;;9.85;1.25;;;23.00;96.70;;;;;;5001330;28;20057;-71
2023/06/30 09:14:24;;;;;;;9.73;1.20;;;22.50;97.30;;;;;;4932823;28;213785;-71
2023/06/30 09:16:50;;;;;;;7.07;1.20;;;22.40;96.90;;;;;;4994209;28;20058;-71
2023/06/30 09:19:16;;;;;;;7.22;1.20;;;22.90;96.20;;;;;;4983261;28;209792;-71
2023/06/30 09:21:42;;;;;;;6.13;1.10;;;23.30;93.60;;;;;;4992601;28;250127;-71
2023/06/30 09:24:08;;;;;;;7.57;1.15;;;22.90;93.90;;;;;;5009402;28;20116;-73
2023/06/30 09:26:34;;;;;;;6.20;1.23;;;23.50;94.80;;;;;;4953773;28;206416;-71
2023/06/30 09:29:02;;;;;;;8.48;1.20;;;23.80;92.00;;;;;;4990798;28;20513;-72
2023/06/30 09:31:31;;;;;;;5.22;1.02;;;23.00;93.30;;;;;;4937771;28;207971;-72
2023/06/30 09:34:11;;;;;;;7.95;1.30;;;22.60;93.00;;;;;;4990128;28;20050;-71
2023/06/30 09:36:47;;;;;;;8.45;1.50;;;21.70;94.00;;;;;;4963921;28;175027;-71
2023/06/30 09:39:14;;;;;;;6.30;1.40;;;21.60;95.00;;;;;;4957548;28;206922;-71
2023/06/30 09:41:44;;;;;;;6.03;1.20;;;22.20;94.30;;;;;;4961981;28;23264;-71
2023/06/30 09:44:12;;;;;;;8.48;1.30;;;22.60;93.60;;;;;;5005051;28;21439;-70
2023/06/30 09:46:47;;;;;;;7.97;1.20;;;23.20;92.30;;;;;;4939530;28;206860;-70
2023/06/30 09:49:30;;;;;;;7.13;1.15;;;24.20;90.20;;;;;;4994918;28;207272;-71
2023/06/30 09:51:57;;;;;;;8.15;1.10;;;24.70;90.40;;;;;;4948709;28;20080;-71
2023/06/30 09:54:24;;;;;;;7.30;1.20;;;24.10;90.70;;;;;;4939396;28;249684;-68
2023/06/30 09:57:01;;;;;;;9.93;1.20;;;23.20;91.50;;;;;;4999713;28;20046;-71
2023/06/30 09:59:27;;;;;;;8.93;1.37;;;23.80;91.00;;;;;;4964233;28;210960;-70
2023/06/30 10:01:55;;;;;;;7.20;1.42;;;24.40;91.50;;;;;;5018813;28;20045;-71
2023/06/30 10:04:22;;;;;;;9.38;1.65;;;24.70;92.20;;;;;;4966185;28;218690;-71
2023/06/30 10:06:50;;;;;;;7.40;1.40;;;25.20;91.70;;;;;;5024402;28;20062;-74
2023/06/30 10:09:19;;;;;;;6.40;1.10;;;25.40;91.70;;;;;;4980546;28;206397;-71
2023/06/30 10:11:50;;;;;;;7.88;1.30;;;25.60;90.20;;;;;;5003670;28;20042;-72
2023/06/30 10:14:19;;;;;;;8.45;1.30;;;25.60;90.50;;;;;;4975996;28;211971;-72
2023/06/30 10:16:47;;;;;;;8.60;1.10;;;25.80;89.90;;;;;;4986810;28;20046;-72
2023/06/30 10:19:14;;;;;;;8.65;1.33;;;24.70;88.00;;;;;;4988158;28;207471;-71
2023/06/30 10:21:41;;;;;;;6.63;1.20;;;24.30;90.80;;;;;;4974679;28;53169;-71
2023/06/30 10:24:09;;;;;;;8.80;1.30;;;23.50;91.00;;;;;;5005826;28;20072;-70
2023/06/30 10:26:36;;;;;;;7.63;1.30;;;22.90;91.10;;;;;;4949402;28;207343;-70
2023/06/30 10:29:03;;;;;;;5.85;1.10;;;23.60;91.10;;;;;;5009194;28;20058;-70
2023/06/30 10:31:31;;;;;;;6.95;1.20;;;23.50;90.10;;;;;;4961165;28;212960;-69
2023/06/30 10:33:58;;;;;;;7.05;1.17;;;23.80;88.70;;;;;;5009783;28;20053;-70
2023/06/30 10:36:25;;;;;;;7.82;1.45;;;24.40;88.10;;;;;;4955677;28;207491;-70
2023/06/30 10:38:51;;;;;;;6.10;1.23;;;24.30;87.40;;;;;;5009369;28;20057;-71
2023/06/30 10:41:22;;;;;;;6.30;1.27;;;24.90;89.60;;;;;;4972598;28;208558;-71
2023/06/30 10:44:03;;;;;;;9.05;1.63;;;25.20;88.00;;;;;;5006702;28;20058;-71
2023/06/30 10:46:52;;;;;;;12.20;1.40;;;24.40;86.40;;;;;;4972897;28;209899;-70
2023/06/30 10:49:30;;;;;;;9.57;1.50;;;23.40;90.00;;;;;;4973195;28;212317;-70
2023/06/30 10:51:58;;;;;;;7.95;1.25;;;23.50;89.30;;;;;;4994293;28;20045;-71
2023/06/30 10:54:37;;;;;;;8.10;1.50;;;23.90;88.50;;;;;;4944651;28;207872;-69
2023/06/30 10:57:28;;;;;;;8.20;1.38;;;24.30;87.50;;;;;;4987619;28;20058;-72
2023/06/30 11:00:11;;;;;;;6.18;1.30;;;24.30;85.40;;;;;;4948628;28;206788;-72
2023/06/30 11:02:58;;;;;;;8.75;1.75;;;24.30;87.40;;;;;;5005558;28;20058;-70
2023/06/30 11:05:33;;;;;;;9.48;1.30;;;24.70;88.20;;;;;;4955192;28;209841;-70
2023/06/30 11:08:06;;;;;;;8.15;1.50;;;25.10;84.90;;;;;;5010576;28;20472;-70
2023/06/30 11:10:32;;;;;;;9.48;1.60;;;25.20;87.10;;;;;;4967931;28;207747;-69
2023/06/30 11:13:00;;;;;;;8.57;1.48;;;25.50;85.10;;;;;;5016716;28;20049;-70
2023/06/30 11:15:28;;;;;;;8.88;1.70;;;25.60;86.40;;;;;;4935694;28;210084;-70
2023/06/30 11:17:54;;;;;;;6.43;1.20;;;26.00;85.00;;;;;;4995023;28;20061;-70
2023/06/30 11:20:26;;;;;;;8.32;1.30;;;26.20;84.80;;;;;;4948422;28;213109;-70
2023/06/30 11:23:16;;;;;;;8.75;1.35;;;26.00;83.90;;;;;;5009040;28;20430;-70
2023/06/30 11:25:43;;;;;;;7.00;1.60;;;25.20;84.10;;;;;;4972326;28;209586;-70
2023/06/30 11:28:12;;;;;;;6.95;1.30;;;24.70;86.80;;;;;;5011740;28;20798;-70
2023/06/30 11:30:38;;;;;;;8.50;1.50;;;24.20;87.10;;;;;;4954869;28;213740;-70
2023/06/30 11:33:06;;;;;;;8.10;1.33;;;24.40;87.20;;;;;;5005491;28;20058;-71
2023/06/30 11:35:39;;;;;;;7.20;1.50;;;25.10;87.60;;;;;;4947449;28;207642;-70
2023/06/30 11:38:09;;;;;;;6.80;1.40;;;25.80;87.10;;;;;;4980946;28;20419;-71
2023/06/30 11:40:35;;;;;;;7.00;1.50;;;26.60;85.90;;;;;;4930184;28;207471;-71
2023/06/30 11:43:04;;;;;;;7.35;1.40;;;26.70;84.90;;;;;;4976659;28;20057;-72
2023/06/30 11:45:31;;;;;;;7.25;1.30;;;26.20;84.70;;;;;;4951141;28;209975;-70
2023/06/30 11:47:57;;;;;;;7.97;2.28;;;25.60;84.00;;;;;;4994891;28;20511;-72
2023/06/30 11:50:25;;;;;;;8.15;1.40;;;25.30;84.70;;;;;;4937394;28;207145;-72
2023/06/30 11:52:51;;;;;;;9.32;1.55;;;25.90;85.80;;;;;;4986354;28;20098;-70
2023/06/30 11:55:18;;;;;;;6.95;1.50;;;26.30;82.80;;;;;;4923817;28;209447;-72
2023/06/30 11:57:46;;;;;;;9.18;1.50;;;26.30;82.00;;;;;;4991916;28;20050;-72
2023/06/30 12:00:17;;;;;;;7.40;1.50;;;26.40;79.10;;;;;;4942462;28;218622;-73
2023/06/30 12:02:48;;;;;;;6.28;1.35;;;25.90;79.50;;;;;;5000903;28;20053;-71
2023/06/30 12:05:23;;;;;;;7.45;1.40;;;25.90;81.20;;;;;;4940922;28;207471;-70
2023/06/30 12:07:51;;;;;;;10.77;1.88;;;25.70;81.30;;;;;;4998362;28;20069;-71
2023/06/30 12:10:17;;;;;;;10.13;1.70;;;25.40;82.50;;;;;;4951695;28;210207;-71
2023/06/30 12:12:52;;;;;;;7.70;1.48;;;24.90;83.70;;;;;;5007252;28;20042;-70
2023/06/30 12:15:18;;;;;;;8.82;1.50;;;25.20;84.00;;;;;;4963374;28;210112;-71
2023/06/30 12:17:45;;;;;;;9.30;1.30;;;25.10;84.90;;;;;;5017878;28;20061;-71
2023/06/30 12:20:11;;;;;;;6.78;1.50;;;25.00;83.20;;;;;;4942469;28;209474;-70
2023/06/30 12:22:44;;;;;;;7.20;1.30;;;25.00;82.00;;;;;;4989968;28;20054;-71
2023/06/30 12:25:11;;;;;;;7.57;1.40;;;25.30;83.60;;;;;;4932660;28;208568;-71
2023/06/30 12:27:43;;;;;;;6.53;1.33;;;26.00;82.70;;;;;;4995291;28;20050;-71
2023/06/30 12:30:18;;;;;;;9.85;1.33;;;26.10;82.90;;;;;;4933920;28;216941;-69
2023/06/30 12:32:46;;;;;;;8.57;1.60;;;25.60;81.80;;;;;;4994070;28;20051;-70
2023/06/30 12:35:12;;;;;;;8.32;1.55;;;25.20;84.00;;;;;;4942627;28;218700;-71
2023/06/30 12:37:39;;;;;;;6.93;1.50;;;25.10;84.10;;;;;;4984956;28;20058;-70
2023/06/30 12:40:06;;;;;;;10.25;1.60;;;24.70;84.30;;;;;;4937900;28;208765;-71